sensor_id;sensor_type;location;lat;lon;timestamp;temperature;humidity
76120;DHT22;64852;48.092;-1.640;2023-12-20T00:00:25;8.80;99.90
76120;DHT22;64852;48.092;-1.640;2023-12-20T00:02:51;9.40;99.90
76120;DHT22;64852;48.092;-1.640;2023-12-20T00:05:16;9.30;99.90
76120;DHT22;64852;48.092;-1.640;2023-12-20T00:07:42;9.40;99.90
76120;DHT22;64852;48.092;-1.640;2023-12-20T00:10:08;9.90;99.90
76120;DHT22;64852;48.092;-1.640;2023-12-20T00:12:34;8.70;99.90
76120;DHT22;64852;48.092;-1.640;2023-12-20T00:15:00;9.60;99.90
76120;DHT22;64852;48.092;-1.640;2023-12-20T00:17:25;9.60;99.90
76120;DHT22;64852;48.092;-1.640;2023-12-20T00:19:51;8.90;99.90
76120;DHT22;64852;48.092;-1.640;2023-12-20T00:22:16;9.80;99.90
76120;DHT22;64852;48.092;-1.640;2023-12-20T00:24:42;9.80;99.90
76120;DHT22;64852;48.092;-1.640;2023-12-20T00:27:08;9.80;99.90
76120;DHT22;64852;48.092;-1.640;2023-12-20T00:29:33;8.60;99.90
76120;DHT22;64852;48.092;-1.640;2023-12-20T00:31:59;9.20;99.90
76120;DHT22;64852;48.092;-1.640;2023-12-20T00:34:24;8.50;99.90
76120;DHT22;64852;48.092;-1.640;2023-12-20T00:36:50;9.60;99.90
76120;DHT22;64852;48.092;-1.640;2023-12-20T00:39:15;8.60;99.90
76120;DHT22;64852;48.092;-1.640;2023-12-20T00:41:41;9.20;99.90
76120;DHT22;64852;48.092;-1.640;2023-12-20T00:44:07;8.40;99.90
76120;DHT22;64852;48.092;-1.640;2023-12-20T00:46:32;7.60;99.90
76120;DHT22;64852;48.092;-1.640;2023-12-20T00:48:58;8.50;99.90
76120;DHT22;64852;48.092;-1.640;2023-12-20T00:51:23;8.40;99.90
76120;DHT22;64852;48.092;-1.640;2023-12-20T00:53:50;9.50;99.90
76120;DHT22;64852;48.092;-1.640;2023-12-20T00:56:20;8.60;99.90
76120;DHT22;64852;48.092;-1.640;2023-12-20T00:58:45;8.30;99.90
76120;DHT22;64852;48.092;-1.640;2023-12-20T01:01:11;9.10;99.90
76120;DHT22;64852;48.092;-1.640;2023-12-20T01:03:36;8.60;99.90
76120;DHT22;64852;48.092;-1.640;2023-12-20T01:06:02;9.40;99.90
76120;DHT22;64852;48.092;-1.640;2023-12-20T01:08:29;8.30;99.90
76120;DHT22;64852;48.092;-1.640;2023-12-20T01:10:55;8.60;99.90
76120;DHT22;64852;48.092;-1.640;2023-12-20T01:13:21;8.40;99.90
76120;DHT22;64852;48.092;-1.640;2023-12-20T01:15:46;8.20;99.90
76120;DHT22;64852;48.092;-1.640;2023-12-20T01:18:13;8.30;99.90
76120;DHT22;64852;48.092;-1.640;2023-12-20T01:20:39;9.00;99.90
76120;DHT22;64852;48.092;-1.640;2023-12-20T01:23:04;8.30;99.90
76120;DHT22;64852;48.092;-1.640;2023-12-20T01:25:30;8.30;99.90
76120;DHT22;64852;48.092;-1.640;2023-12-20T01:27:55;8.20;99.90
76120;DHT22;64852;48.092;-1.640;2023-12-20T01:30:21;9.30;99.90
76120;DHT22;64852;48.092;-1.640;2023-12-20T01:32:46;8.90;99.90
76120;DHT22;64852;48.092;-1.640;2023-12-20T01:35:12;8.30;99.90
76120;DHT22;64852;48.092;-1.640;2023-12-20T01:37:38;8.30;99.90
76120;DHT22;64852;48.092;-1.640;2023-12-20T01:40:04;8.70;99.90
76120;DHT22;64852;48.092;-1.640;2023-12-20T01:42:30;8.30;99.90
76120;DHT22;64852;48.092;-1.640;2023-12-20T01:44:55;8.70;99.90
76120;DHT22;64852;48.092;-1.640;2023-12-20T01:47:21;8.40;99.90
76120;DHT22;64852;48.092;-1.640;2023-12-20T01:49:48;8.50;99.90
76120;DHT22;64852;48.092;-1.640;2023-12-20T01:52:14;8.50;99.90
76120;DHT22;64852;48.092;-1.640;2023-12-20T01:54:40;9.20;99.90
76120;DHT22;64852;48.092;-1.640;2023-12-20T01:57:08;8.50;99.90
76120;DHT22;64852;48.092;-1.640;2023-12-20T01:59:34;8.40;99.90
76120;DHT22;64852;48.092;-1.640;2023-12-20T02:02:00;8.40;99.90
76120;DHT22;64852;48.092;-1.640;2023-12-20T02:04:26;8.30;99.90
76120;DHT22;64852;48.092;-1.640;2023-12-20T02:06:52;9.50;99.90
76120;DHT22;64852;48.092;-1.640;2023-12-20T02:09:18;9.30;99.90
76120;DHT22;64852;48.092;-1.640;2023-12-20T02:11:44;8.30;99.90
76120;DHT22;64852;48.092;-1.640;2023-12-20T02:14:10;9.00;99.90
76120;DHT22;64852;48.092;-1.640;2023-12-20T02:16:36;8.30;99.90
76120;DHT22;64852;48.092;-1.640;2023-12-20T02:19:03;8.20;99.90
76120;DHT22;64852;48.092;-1.640;2023-12-20T02:21:34;9.10;99.90
76120;DHT22;64852;48.092;-1.640;2023-12-20T02:24:02;9.50;99.90
76120;DHT22;64852;48.092;-1.640;2023-12-20T02:26:28;8.40;99.90
76120;DHT22;64852;48.092;-1.640;2023-12-20T02:28:55;9.10;99.90
76120;DHT22;64852;48.092;-1.640;2023-12-20T02:31:23;8.30;99.90
76120;DHT22;64852;48.092;-1.640;2023-12-20T02:33:49;8.10;99.90
76120;DHT22;64852;48.092;-1.640;2023-12-20T02:36:14;8.30;99.90
76120;DHT22;64852;48.092;-1.640;2023-12-20T02:38:40;8.30;99.90
76120;DHT22;64852;48.092;-1.640;2023-12-20T02:41:06;9.20;99.90
76120;DHT22;64852;48.092;-1.640;2023-12-20T02:43:31;8.40;99.90
76120;DHT22;64852;48.092;-1.640;2023-12-20T02:45:57;9.40;99.90
76120;DHT22;64852;48.092;-1.640;2023-12-20T02:48:22;9.20;99.90
76120;DHT22;64852;48.092;-1.640;2023-12-20T02:50:48;8.50;99.90
76120;DHT22;64852;48.092;-1.640;2023-12-20T02:53:14;8.40;99.90
76120;DHT22;64852;48.092;-1.640;2023-12-20T02:55:40;9.30;99.90
76120;DHT22;64852;48.092;-1.640;2023-12-20T02:58:05;8.40;99.90
76120;DHT22;64852;48.092;-1.640;2023-12-20T03:00:31;8.30;99.90
76120;DHT22;64852;48.092;-1.640;2023-12-20T03:02:57;8.30;99.90
76120;DHT22;64852;48.092;-1.640;2023-12-20T03:05:24;8.60;99.90
76120;DHT22;64852;48.092;-1.640;2023-12-20T03:07:50;8.20;99.90
76120;DHT22;64852;48.092;-1.640;2023-12-20T03:10:16;9.00;99.90
76120;DHT22;64852;48.092;-1.640;2023-12-20T03:12:41;8.20;99.90
76120;DHT22;64852;48.092;-1.640;2023-12-20T03:15:07;9.20;99.90
76120;DHT22;64852;48.092;-1.640;2023-12-20T03:17:33;8.10;99.90
76120;DHT22;64852;48.092;-1.640;2023-12-20T03:19:58;8.50;99.90
76120;DHT22;64852;48.092;-1.640;2023-12-20T03:22:24;8.70;99.90
76120;DHT22;64852;48.092;-1.640;2023-12-20T03:24:49;8.50;99.90
76120;DHT22;64852;48.092;-1.640;2023-12-20T03:27:15;8.00;99.90
76120;DHT22;64852;48.092;-1.640;2023-12-20T03:29:41;8.70;99.90
76120;DHT22;64852;48.092;-1.640;2023-12-20T03:32:06;9.20;99.90
76120;DHT22;64852;48.092;-1.640;2023-12-20T03:34:33;8.20;99.90
76120;DHT22;64852;48.092;-1.640;2023-12-20T03:36:59;8.50;99.90
76120;DHT22;64852;48.092;-1.640;2023-12-20T03:39:25;8.00;99.90
76120;DHT22;64852;48.092;-1.640;2023-12-20T03:41:50;8.70;99.90
76120;DHT22;64852;48.092;-1.640;2023-12-20T03:44:16;8.10;99.90
76120;DHT22;64852;48.092;-1.640;2023-12-20T03:46:41;8.80;99.90
76120;DHT22;64852;48.092;-1.640;2023-12-20T03:49:07;8.00;99.90
76120;DHT22;64852;48.092;-1.640;2023-12-20T03:51:32;9.00;99.90
76120;DHT22;64852;48.092;-1.640;2023-12-20T03:53:58;7.80;99.90
76120;DHT22;64852;48.092;-1.640;2023-12-20T03:56:23;7.90;99.90
76120;DHT22;64852;48.092;-1.640;2023-12-20T03:58:49;8.40;99.90
76120;DHT22;64852;48.092;-1.640;2023-12-20T04:01:15;8.60;99.90
76120;DHT22;64852;48.092;-1.640;2023-12-20T04:03:40;7.90;99.90
76120;DHT22;64852;48.092;-1.640;2023-12-20T04:06:06;7.80;99.90
76120;DHT22;64852;48.092;-1.640;2023-12-20T04:08:31;8.20;99.90
76120;DHT22;64852;48.092;-1.640;2023-12-20T04:10:57;9.20;99.90
76120;DHT22;64852;48.092;-1.640;2023-12-20T04:13:23;7.90;99.90
76120;DHT22;64852;48.092;-1.640;2023-12-20T04:15:48;8.00;99.90
76120;DHT22;64852;48.092;-1.640;2023-12-20T04:18:16;9.00;99.90
76120;DHT22;64852;48.092;-1.640;2023-12-20T04:20:41;7.90;99.90
76120;DHT22;64852;48.092;-1.640;2023-12-20T04:23:07;7.90;99.90
76120;DHT22;64852;48.092;-1.640;2023-12-20T04:25:33;8.90;99.90
76120;DHT22;64852;48.092;-1.640;2023-12-20T04:27:58;8.40;99.90
76120;DHT22;64852;48.092;-1.640;2023-12-20T04:30:24;8.10;99.90
76120;DHT22;64852;48.092;-1.640;2023-12-20T04:32:49;8.50;99.90
76120;DHT22;64852;48.092;-1.640;2023-12-20T04:35:15;8.90;99.90
76120;DHT22;64852;48.092;-1.640;2023-12-20T04:37:40;8.70;99.90
76120;DHT22;64852;48.092;-1.640;2023-12-20T04:40:06;8.00;99.90
76120;DHT22;64852;48.092;-1.640;2023-12-20T04:42:33;7.90;99.90
76120;DHT22;64852;48.092;-1.640;2023-12-20T04:44:59;8.00;99.90
76120;DHT22;64852;48.092;-1.640;2023-12-20T04:47:24;9.00;99.90
76120;DHT22;64852;48.092;-1.640;2023-12-20T04:49:50;8.10;99.90
76120;DHT22;64852;48.092;-1.640;2023-12-20T04:52:15;8.00;99.90
76120;DHT22;64852;48.092;-1.640;2023-12-20T04:54:41;8.30;99.90
76120;DHT22;64852;48.092;-1.640;2023-12-20T04:57:07;8.30;99.90
76120;DHT22;64852;48.092;-1.640;2023-12-20T04:59:32;8.90;99.90
76120;DHT22;64852;48.092;-1.640;2023-12-20T05:01:58;8.00;99.90
76120;DHT22;64852;48.092;-1.640;2023-12-20T05:04:24;8.00;99.90
76120;DHT22;64852;48.092;-1.640;2023-12-20T05:06:49;8.60;99.90
76120;DHT22;64852;48.092;-1.640;2023-12-20T05:09:15;8.20;99.90
76120;DHT22;64852;48.092;-1.640;2023-12-20T05:11:41;8.20;99.90
76120;DHT22;64852;48.092;-1.640;2023-12-20T05:14:06;7.90;99.90
76120;DHT22;64852;48.092;-1.640;2023-12-20T05:16:32;8.80;99.90
76120;DHT22;64852;48.092;-1.640;2023-12-20T05:18:58;8.80;99.90
76120;DHT22;64852;48.092;-1.640;2023-12-20T05:21:26;8.10;99.90
76120;DHT22;64852;48.092;-1.640;2023-12-20T05:23:51;8.10;99.90
76120;DHT22;64852;48.092;-1.640;2023-12-20T05:26:17;8.00;99.90
76120;DHT22;64852;48.092;-1.640;2023-12-20T05:28:42;8.70;99.90
76120;DHT22;64852;48.092;-1.640;2023-12-20T05:31:08;8.90;99.90
76120;DHT22;64852;48.092;-1.640;2023-12-20T05:33:34;8.60;99.90
76120;DHT22;64852;48.092;-1.640;2023-12-20T05:36:00;9.10;99.90
76120;DHT22;64852;48.092;-1.640;2023-12-20T05:38:25;8.40;99.90
76120;DHT22;64852;48.092;-1.640;2023-12-20T05:40:51;7.90;99.90
76120;DHT22;64852;48.092;-1.640;2023-12-20T05:43:17;7.90;99.90
76120;DHT22;64852;48.092;-1.640;2023-12-20T05:45:43;8.90;99.90
76120;DHT22;64852;48.092;-1.640;2023-12-20T05:48:09;8.60;99.90
76120;DHT22;64852;48.092;-1.640;2023-12-20T05:50:34;8.70;99.90
76120;DHT22;64852;48.092;-1.640;2023-12-20T05:53:00;9.20;99.90
76120;DHT22;64852;48.092;-1.640;2023-12-20T05:55:26;8.70;99.90
76120;DHT22;64852;48.092;-1.640;2023-12-20T05:57:51;8.90;99.90
76120;DHT22;64852;48.092;-1.640;2023-12-20T06:00:17;8.80;99.90
76120;DHT22;64852;48.092;-1.640;2023-12-20T06:02:43;8.00;99.90
76120;DHT22;64852;48.092;-1.640;2023-12-20T06:05:09;8.30;99.90
76120;DHT22;64852;48.092;-1.640;2023-12-20T06:07:35;8.10;99.90
76120;DHT22;64852;48.092;-1.640;2023-12-20T06:10:00;8.40;99.90
76120;DHT22;64852;48.092;-1.640;2023-12-20T06:12:26;8.10;99.90
76120;DHT22;64852;48.092;-1.640;2023-12-20T06:14:53;8.80;99.90
76120;DHT22;64852;48.092;-1.640;2023-12-20T06:17:19;8.50;99.90
76120;DHT22;64852;48.092;-1.640;2023-12-20T06:19:45;9.00;99.90
76120;DHT22;64852;48.092;-1.640;2023-12-20T06:22:14;8.10;99.90
76120;DHT22;64852;48.092;-1.640;2023-12-20T06:24:39;8.50;99.90
76120;DHT22;64852;48.092;-1.640;2023-12-20T06:27:05;8.10;99.90
76120;DHT22;64852;48.092;-1.640;2023-12-20T06:29:30;8.10;99.90
76120;DHT22;64852;48.092;-1.640;2023-12-20T06:31:56;8.90;99.90
76120;DHT22;64852;48.092;-1.640;2023-12-20T06:34:22;8.50;99.90
76120;DHT22;64852;48.092;-1.640;2023-12-20T06:36:47;8.30;99.90
76120;DHT22;64852;48.092;-1.640;2023-12-20T06:39:13;8.20;99.90
76120;DHT22;64852;48.092;-1.640;2023-12-20T06:41:39;8.10;99.90
76120;DHT22;64852;48.092;-1.640;2023-12-20T06:44:05;8.10;99.90
76120;DHT22;64852;48.092;-1.640;2023-12-20T06:46:30;8.30;99.90
76120;DHT22;64852;48.092;-1.640;2023-12-20T06:48:56;8.50;99.90
76120;DHT22;64852;48.092;-1.640;2023-12-20T06:51:21;8.50;99.90
76120;DHT22;64852;48.092;-1.640;2023-12-20T06:53:51;9.30;99.90
76120;DHT22;64852;48.092;-1.640;2023-12-20T06:56:16;9.30;99.90
76120;DHT22;64852;48.092;-1.640;2023-12-20T06:58:42;8.60;99.90
76120;DHT22;64852;48.092;-1.640;2023-12-20T07:01:11;8.90;99.90
76120;DHT22;64852;48.092;-1.640;2023-12-20T07:03:37;8.60;99.90
76120;DHT22;64852;48.092;-1.640;2023-12-20T07:06:02;8.70;99.90
76120;DHT22;64852;48.092;-1.640;2023-12-20T07:08:28;8.60;99.90
76120;DHT22;64852;48.092;-1.640;2023-12-20T07:10:54;9.60;99.90
76120;DHT22;64852;48.092;-1.640;2023-12-20T07:13:19;8.60;99.90
76120;DHT22;64852;48.092;-1.640;2023-12-20T07:15:45;8.40;99.90
76120;DHT22;64852;48.092;-1.640;2023-12-20T07:18:10;8.50;99.90
76120;DHT22;64852;48.092;-1.640;2023-12-20T07:20:36;8.50;99.90
76120;DHT22;64852;48.092;-1.640;2023-12-20T07:23:02;8.60;99.90
76120;DHT22;64852;48.092;-1.640;2023-12-20T07:25:28;8.00;99.90
76120;DHT22;64852;48.092;-1.640;2023-12-20T07:27:53;9.10;99.90
76120;DHT22;64852;48.092;-1.640;2023-12-20T07:30:19;8.10;99.90
76120;DHT22;64852;48.092;-1.640;2023-12-20T07:32:44;9.10;99.90
76120;DHT22;64852;48.092;-1.640;2023-12-20T07:35:10;8.10;99.90
76120;DHT22;64852;48.092;-1.640;2023-12-20T07:37:35;8.00;99.90
76120;DHT22;64852;48.092;-1.640;2023-12-20T07:40:01;8.00;99.90
76120;DHT22;64852;48.092;-1.640;2023-12-20T07:42:26;7.90;99.90
76120;DHT22;64852;48.092;-1.640;2023-12-20T07:44:52;8.20;99.90
76120;DHT22;64852;48.092;-1.640;2023-12-20T07:47:18;8.20;99.90
76120;DHT22;64852;48.092;-1.640;2023-12-20T07:49:49;7.90;99.90
76120;DHT22;64852;48.092;-1.640;2023-12-20T07:52:16;7.80;99.90
76120;DHT22;64852;48.092;-1.640;2023-12-20T07:54:42;8.90;99.90
76120;DHT22;64852;48.092;-1.640;2023-12-20T07:57:07;8.00;99.90
76120;DHT22;64852;48.092;-1.640;2023-12-20T07:59:33;8.90;99.90
76120;DHT22;64852;48.092;-1.640;2023-12-20T08:01:59;8.40;99.90
76120;DHT22;64852;48.092;-1.640;2023-12-20T08:04:24;8.10;99.90
76120;DHT22;64852;48.092;-1.640;2023-12-20T08:06:50;8.00;99.90
76120;DHT22;64852;48.092;-1.640;2023-12-20T08:09:16;9.10;99.90
76120;DHT22;64852;48.092;-1.640;2023-12-20T08:11:45;8.70;99.90
76120;DHT22;64852;48.092;-1.640;2023-12-20T08:14:11;8.40;99.90
76120;DHT22;64852;48.092;-1.640;2023-12-20T08:16:36;8.40;99.90
76120;DHT22;64852;48.092;-1.640;2023-12-20T08:19:02;8.50;99.90
76120;DHT22;64852;48.092;-1.640;2023-12-20T08:21:27;8.80;99.90
76120;DHT22;64852;48.092;-1.640;2023-12-20T08:23:53;8.30;99.90
76120;DHT22;64852;48.092;-1.640;2023-12-20T08:26:19;9.10;99.90
76120;DHT22;64852;48.092;-1.640;2023-12-20T08:28:49;8.40;99.90
76120;DHT22;64852;48.092;-1.640;2023-12-20T08:31:16;9.00;99.90
76120;DHT22;64852;48.092;-1.640;2023-12-20T08:33:45;8.70;99.90
76120;DHT22;64852;48.092;-1.640;2023-12-20T08:36:12;8.70;99.90
76120;DHT22;64852;48.092;-1.640;2023-12-20T08:38:37;8.70;99.90
76120;DHT22;64852;48.092;-1.640;2023-12-20T08:41:03;9.70;99.90
76120;DHT22;64852;48.092;-1.640;2023-12-20T08:43:39;9.60;99.90
76120;DHT22;64852;48.092;-1.640;2023-12-20T08:46:08;8.90;99.90
76120;DHT22;64852;48.092;-1.640;2023-12-20T08:48:35;9.70;99.90
76120;DHT22;64852;48.092;-1.640;2023-12-20T08:51:01;8.80;99.90
76120;DHT22;64852;48.092;-1.640;2023-12-20T08:53:26;8.80;99.90
76120;DHT22;64852;48.092;-1.640;2023-12-20T08:55:52;9.00;99.90
76120;DHT22;64852;48.092;-1.640;2023-12-20T08:58:18;8.90;99.90
76120;DHT22;64852;48.092;-1.640;2023-12-20T09:00:43;9.50;99.90
76120;DHT22;64852;48.092;-1.640;2023-12-20T09:03:09;8.80;99.90
76120;DHT22;64852;48.092;-1.640;2023-12-20T09:05:34;9.60;99.90
76120;DHT22;64852;48.092;-1.640;2023-12-20T09:08:00;8.60;99.90
76120;DHT22;64852;48.092;-1.640;2023-12-20T09:10:25;9.10;99.90
76120;DHT22;64852;48.092;-1.640;2023-12-20T09:12:52;8.50;99.90
76120;DHT22;64852;48.092;-1.640;2023-12-20T09:15:24;8.60;99.90
76120;DHT22;64852;48.092;-1.640;2023-12-20T09:17:50;9.30;99.90
76120;DHT22;64852;48.092;-1.640;2023-12-20T09:20:16;8.40;99.90
76120;DHT22;64852;48.092;-1.640;2023-12-20T09:22:42;9.40;99.90
76120;DHT22;64852;48.092;-1.640;2023-12-20T09:25:08;8.50;99.90
76120;DHT22;64852;48.092;-1.640;2023-12-20T09:27:33;8.40;99.90
76120;DHT22;64852;48.092;-1.640;2023-12-20T09:29:59;8.40;99.90
76120;DHT22;64852;48.092;-1.640;2023-12-20T09:32:24;9.10;99.90
76120;DHT22;64852;48.092;-1.640;2023-12-20T09:34:50;7.40;99.90
76120;DHT22;64852;48.092;-1.640;2023-12-20T09:37:15;8.50;99.90
76120;DHT22;64852;48.092;-1.640;2023-12-20T09:39:41;8.40;99.90
76120;DHT22;64852;48.092;-1.640;2023-12-20T09:42:07;9.00;99.90
76120;DHT22;64852;48.092;-1.640;2023-12-20T09:44:33;8.40;99.90
76120;DHT22;64852;48.092;-1.640;2023-12-20T09:47:03;8.90;99.90
76120;DHT22;64852;48.092;-1.640;2023-12-20T09:49:30;8.50;99.90
76120;DHT22;64852;48.092;-1.640;2023-12-20T09:51:56;8.70;99.90
76120;DHT22;64852;48.092;-1.640;2023-12-20T09:54:22;9.50;99.90
76120;DHT22;64852;48.092;-1.640;2023-12-20T09:56:49;9.70;99.90
76120;DHT22;64852;48.092;-1.640;2023-12-20T09:59:15;9.30;99.90
76120;DHT22;64852;48.092;-1.640;2023-12-20T10:01:41;10.00;99.90
76120;DHT22;64852;48.092;-1.640;2023-12-20T10:04:09;9.50;99.90
76120;DHT22;64852;48.092;-1.640;2023-12-20T10:06:46;10.00;99.90
76120;DHT22;64852;48.092;-1.640;2023-12-20T10:09:12;10.30;99.90
76120;DHT22;64852;48.092;-1.640;2023-12-20T10:11:38;9.50;99.90
76120;DHT22;64852;48.092;-1.640;2023-12-20T10:14:04;9.60;99.90
76120;DHT22;64852;48.092;-1.640;2023-12-20T10:16:30;9.70;99.90
76120;DHT22;64852;48.092;-1.640;2023-12-20T10:18:56;10.60;99.90
76120;DHT22;64852;48.092;-1.640;2023-12-20T10:21:24;9.80;99.90
76120;DHT22;64852;48.092;-1.640;2023-12-20T10:23:52;9.60;99.90
76120;DHT22;64852;48.092;-1.640;2023-12-20T10:26:21;9.80;99.90
76120;DHT22;64852;48.092;-1.640;2023-12-20T10:28:49;9.80;99.90
76120;DHT22;64852;48.092;-1.640;2023-12-20T10:31:32;9.90;99.90
76120;DHT22;64852;48.092;-1.640;2023-12-20T10:33:58;9.80;99.90
76120;DHT22;64852;48.092;-1.640;2023-12-20T10:36:31;10.80;99.90
76120;DHT22;64852;48.092;-1.640;2023-12-20T10:38:58;9.90;99.90
76120;DHT22;64852;48.092;-1.640;2023-12-20T10:41:33;10.00;99.90
76120;DHT22;64852;48.092;-1.640;2023-12-20T10:44:01;10.20;99.90
76120;DHT22;64852;48.092;-1.640;2023-12-20T10:46:28;10.90;99.90
76120;DHT22;64852;48.092;-1.640;2023-12-20T10:48:55;10.20;99.90
76120;DHT22;64852;48.092;-1.640;2023-12-20T10:51:21;11.10;99.90
76120;DHT22;64852;48.092;-1.640;2023-12-20T10:53:48;10.10;99.90
76120;DHT22;64852;48.092;-1.640;2023-12-20T10:56:17;10.20;99.90
76120;DHT22;64852;48.092;-1.640;2023-12-20T10:58:50;10.80;99.90
76120;DHT22;64852;48.092;-1.640;2023-12-20T11:01:17;11.20;99.90
76120;DHT22;64852;48.092;-1.640;2023-12-20T11:03:53;10.50;99.90
76120;DHT22;64852;48.092;-1.640;2023-12-20T11:09:20;10.40;99.90
76120;DHT22;64852;48.092;-1.640;2023-12-20T11:17:13;10.50;99.90
76120;DHT22;64852;48.092;-1.640;2023-12-20T11:22:20;10.80;99.90
76120;DHT22;64852;48.092;-1.640;2023-12-20T11:24:48;10.80;99.90
76120;DHT22;64852;48.092;-1.640;2023-12-20T11:27:14;11.30;99.90
76120;DHT22;64852;48.092;-1.640;2023-12-20T11:29:41;10.90;99.90
76120;DHT22;64852;48.092;-1.640;2023-12-20T11:34:58;11.00;99.90
76120;DHT22;64852;48.092;-1.640;2023-12-20T11:37:36;11.00;99.90
76120;DHT22;64852;48.092;-1.640;2023-12-20T11:40:06;11.10;99.90
76120;DHT22;64852;48.092;-1.640;2023-12-20T11:42:39;11.10;99.90
76120;DHT22;64852;48.092;-1.640;2023-12-20T11:45:09;11.40;99.90
76120;DHT22;64852;48.092;-1.640;2023-12-20T11:47:35;11.30;99.90
76120;DHT22;64852;48.092;-1.640;2023-12-20T11:50:01;11.30;99.90
76120;DHT22;64852;48.092;-1.640;2023-12-20T11:52:29;11.40;99.90
76120;DHT22;64852;48.092;-1.640;2023-12-20T11:54:55;12.00;99.90
76120;DHT22;64852;48.092;-1.640;2023-12-20T11:57:21;11.80;99.90
76120;DHT22;64852;48.092;-1.640;2023-12-20T11:59:46;11.50;99.90
76120;DHT22;64852;48.092;-1.640;2023-12-20T12:02:12;11.80;99.90
76120;DHT22;64852;48.092;-1.640;2023-12-20T12:04:41;11.80;99.90
76120;DHT22;64852;48.092;-1.640;2023-12-20T12:07:07;11.90;99.90
76120;DHT22;64852;48.092;-1.640;2023-12-20T12:09:33;12.10;99.90
76120;DHT22;64852;48.092;-1.640;2023-12-20T12:11:58;12.10;99.90
76120;DHT22;64852;48.092;-1.640;2023-12-20T12:14:24;12.30;99.90
76120;DHT22;64852;48.092;-1.640;2023-12-20T12:16:50;12.40;99.90
76120;DHT22;64852;48.092;-1.640;2023-12-20T12:19:25;12.40;99.90
76120;DHT22;64852;48.092;-1.640;2023-12-20T12:22:04;11.70;99.90
76120;DHT22;64852;48.092;-1.640;2023-12-20T12:24:32;12.30;99.90
76120;DHT22;64852;48.092;-1.640;2023-12-20T12:26:58;12.30;99.90
76120;DHT22;64852;48.092;-1.640;2023-12-20T12:29:24;12.60;99.90
76120;DHT22;64852;48.092;-1.640;2023-12-20T12:31:50;12.70;99.90
76120;DHT22;64852;48.092;-1.640;2023-12-20T12:34:17;12.30;99.90
76120;DHT22;64852;48.092;-1.640;2023-12-20T12:36:43;12.70;99.90
76120;DHT22;64852;48.092;-1.640;2023-12-20T12:39:09;12.50;99.90
76120;DHT22;64852;48.092;-1.640;2023-12-20T12:41:40;12.50;99.90
76120;DHT22;64852;48.092;-1.640;2023-12-20T12:44:07;13.40;99.90
76120;DHT22;64852;48.092;-1.640;2023-12-20T12:46:32;12.20;99.90
76120;DHT22;64852;48.092;-1.640;2023-12-20T12:48:58;12.20;99.90
76120;DHT22;64852;48.092;-1.640;2023-12-20T12:51:24;12.10;99.90
76120;DHT22;64852;48.092;-1.640;2023-12-20T12:53:49;12.10;99.90
76120;DHT22;64852;48.092;-1.640;2023-12-20T12:56:15;12.20;99.90
76120;DHT22;64852;48.092;-1.640;2023-12-20T12:58:41;12.20;99.90
76120;DHT22;64852;48.092;-1.640;2023-12-20T13:01:07;12.20;99.90
76120;DHT22;64852;48.092;-1.640;2023-12-20T13:03:32;12.40;99.90
76120;DHT22;64852;48.092;-1.640;2023-12-20T13:05:59;12.30;99.90
76120;DHT22;64852;48.092;-1.640;2023-12-20T13:08:25;12.30;99.90
76120;DHT22;64852;48.092;-1.640;2023-12-20T13:10:51;12.30;99.90
76120;DHT22;64852;48.092;-1.640;2023-12-20T13:13:16;12.30;99.90
76120;DHT22;64852;48.092;-1.640;2023-12-20T13:15:42;12.00;99.90
76120;DHT22;64852;48.092;-1.640;2023-12-20T13:18:13;12.10;99.90
76120;DHT22;64852;48.092;-1.640;2023-12-20T13:20:39;12.10;99.90
76120;DHT22;64852;48.092;-1.640;2023-12-20T13:23:05;12.00;99.90
76120;DHT22;64852;48.092;-1.640;2023-12-20T13:25:31;12.10;99.90
76120;DHT22;64852;48.092;-1.640;2023-12-20T13:27:56;12.10;99.90
76120;DHT22;64852;48.092;-1.640;2023-12-20T13:30:22;12.10;99.90
76120;DHT22;64852;48.092;-1.640;2023-12-20T13:32:48;12.60;99.90
76120;DHT22;64852;48.092;-1.640;2023-12-20T13:35:14;12.20;99.90
76120;DHT22;64852;48.092;-1.640;2023-12-20T13:37:40;12.00;99.90
76120;DHT22;64852;48.092;-1.640;2023-12-20T13:40:06;12.10;99.90
76120;DHT22;64852;48.092;-1.640;2023-12-20T13:42:32;12.00;99.90
76120;DHT22;64852;48.092;-1.640;2023-12-20T13:44:57;12.00;99.90
76120;DHT22;64852;48.092;-1.640;2023-12-20T13:47:23;12.00;99.90
76120;DHT22;64852;48.092;-1.640;2023-12-20T13:49:48;12.00;99.90
76120;DHT22;64852;48.092;-1.640;2023-12-20T13:52:14;11.50;99.90
76120;DHT22;64852;48.092;-1.640;2023-12-20T13:54:40;12.00;99.90
76120;DHT22;64852;48.092;-1.640;2023-12-20T13:57:05;11.90;99.90
76120;DHT22;64852;48.092;-1.640;2023-12-20T13:59:31;12.10;99.90
76120;DHT22;64852;48.092;-1.640;2023-12-20T14:01:56;12.20;99.90
76120;DHT22;64852;48.092;-1.640;2023-12-20T14:04:22;12.60;99.90
76120;DHT22;64852;48.092;-1.640;2023-12-20T14:06:48;12.00;99.90
76120;DHT22;64852;48.092;-1.640;2023-12-20T14:09:13;12.00;99.90
76120;DHT22;64852;48.092;-1.640;2023-12-20T14:11:41;12.00;99.90
76120;DHT22;64852;48.092;-1.640;2023-12-20T14:14:09;12.00;99.90
76120;DHT22;64852;48.092;-1.640;2023-12-20T14:16:36;12.50;99.90
76120;DHT22;64852;48.092;-1.640;2023-12-20T14:19:01;12.90;99.90
76120;DHT22;64852;48.092;-1.640;2023-12-20T14:21:28;12.40;99.90
76120;DHT22;64852;48.092;-1.640;2023-12-20T14:23:54;12.90;99.90
76120;DHT22;64852;48.092;-1.640;2023-12-20T14:26:20;12.50;99.90
76120;DHT22;64852;48.092;-1.640;2023-12-20T14:28:45;12.40;99.90
76120;DHT22;64852;48.092;-1.640;2023-12-20T14:31:11;12.30;99.90
76120;DHT22;64852;48.092;-1.640;2023-12-20T14:33:37;12.50;99.90
76120;DHT22;64852;48.092;-1.640;2023-12-20T14:36:05;12.20;99.90
76120;DHT22;64852;48.092;-1.640;2023-12-20T14:38:31;12.20;99.90
76120;DHT22;64852;48.092;-1.640;2023-12-20T14:40:57;12.00;99.90
76120;DHT22;64852;48.092;-1.640;2023-12-20T14:43:23;12.60;99.90
76120;DHT22;64852;48.092;-1.640;2023-12-20T14:45:48;12.10;99.90
76120;DHT22;64852;48.092;-1.640;2023-12-20T14:48:14;12.70;99.90
76120;DHT22;64852;48.092;-1.640;2023-12-20T14:50:41;12.40;99.90
76120;DHT22;64852;48.092;-1.640;2023-12-20T14:53:08;11.90;99.90
76120;DHT22;64852;48.092;-1.640;2023-12-20T14:55:34;11.90;99.90
76120;DHT22;64852;48.092;-1.640;2023-12-20T14:58:00;12.00;99.90
76120;DHT22;64852;48.092;-1.640;2023-12-20T15:00:26;12.80;99.90
76120;DHT22;64852;48.092;-1.640;2023-12-20T15:02:52;12.10;99.90
76120;DHT22;64852;48.092;-1.640;2023-12-20T15:05:19;12.10;99.90
76120;DHT22;64852;48.092;-1.640;2023-12-20T15:07:45;12.10;99.90
76120;DHT22;64852;48.092;-1.640;2023-12-20T15:10:13;12.10;99.90
76120;DHT22;64852;48.092;-1.640;2023-12-20T15:12:38;10.40;99.90
76120;DHT22;64852;48.092;-1.640;2023-12-20T15:15:04;11.90;99.90
76120;DHT22;64852;48.092;-1.640;2023-12-20T15:17:30;11.90;99.90
76120;DHT22;64852;48.092;-1.640;2023-12-20T15:19:56;12.00;99.90
76120;DHT22;64852;48.092;-1.640;2023-12-20T15:22:22;11.90;99.90
76120;DHT22;64852;48.092;-1.640;2023-12-20T15:24:47;11.90;99.90
76120;DHT22;64852;48.092;-1.640;2023-12-20T15:27:13;11.90;99.90
76120;DHT22;64852;48.092;-1.640;2023-12-20T15:29:41;12.00;99.90
76120;DHT22;64852;48.092;-1.640;2023-12-20T15:32:08;12.20;99.90